Latest Weather Observations for Katanning RS

IDW60801

Issued at 7:33 am WST Friday 9 December 2016 (issued every 30 minutes, with the page automatically refreshed every 10 minutes)

About weather observations | Map of weather stations | Latest weather observations for WA | Other Formats
Station Details ID: 010916 Name: KATANNING Lat: -33.69 Lon: 117.61 Height: 320.0 m
Data from the previous 72 hours. | See also: Recent months at Katanning RS
Date/Time
WST
Temp
°C
App
Temp
°C
Dew
Point
°C
Rel
Hum
%
Delta-T
°C
Wind Press
QNH
hPa
Press
MSL
hPa
Rain since
9am
mm
Dir  Spd
km/h
Gust
km/h
Spd
kts
Gust
kts
09/07:30am 16.5 13.7 6.9 53 4.8 NE 11 17 6 9 1019.5 1018.4 0.0
09/07:00am 14.6 11.8 6.9 60 3.8 ENE 11 15 6 8 1019.4 1018.3 0.0
09/06:30am 12.6 10.2 6.9 68 2.8 E 9 13 5 7 1019.4 1018.3 0.0
09/06:00am 11.1 9.0 6.6 74 2.2 E 7 11 4 6 1019.2 1018.1 0.0
09/05:30am 10.0 7.9 6.5 79 1.7 ESE 7 9 4 5 1019.1 1018.0 0.0
09/05:00am 9.0 6.8 6.1 82 1.4 ESE 7 9 4 5 1019.0 1017.9 0.0
09/04:30am 9.0 6.7 5.9 81 1.4 ESE 7 9 4 5 1018.6 1017.5 0.0
09/04:00am 9.4 7.1 5.9 79 1.6 ESE 7 9 4 5 1018.8 1017.8 0.0
09/03:30am 10.1 7.6 6.4 78 1.8 E 9 13 5 7 1018.7 1017.6 0.0
09/03:00am 10.1 7.2 6.3 77 1.8 E 11 13 6 7 1019.0 1017.9 0.0
09/02:30am 10.5 8.0 6.5 76 1.9 E 9 13 5 7 1019.2 1018.1 0.0
09/02:00am 10.5 7.6 6.5 76 1.9 E 11 15 6 8 1019.2 1018.1 0.0
09/01:30am 10.9 8.1 6.8 76 2.0 E 11 15 6 8 1019.2 1018.1 0.0
09/01:00am 11.0 7.8 6.9 76 2.0 E 13 17 7 9 1019.3 1018.2 0.0
09/12:30am 11.6 8.5 7.1 74 2.2 E 13 19 7 10 1019.6 1018.5 0.0
09/12:00am 12.0 8.5 7.1 72 2.4 E 15 20 8 11 1019.8 1018.7 0.0
 
Date/Time
WST
Temp
°C
App
Temp
°C
Dew
Point
°C
Rel
Hum
%
Delta-T
°C
Wind Press
QNH
hPa
Press
MSL
hPa
Rain since
9am
mm
Dir  Spd
km/h
Gust
km/h
Spd
kts
Gust
kts
08/11:30pm 12.4 9.3 7.1 70 2.6 E 13 20 7 11 1020.0 1018.9 0.0
08/11:00pm 12.9 9.3 6.9 67 2.9 E 15 24 8 13 1020.3 1019.2 0.0
08/10:30pm 13.6 9.1 6.9 64 3.3 E 20 30 11 16 1020.6 1019.5 0.0
08/10:00pm 14.3 10.7 6.6 60 3.8 ESE 15 20 8 11 1020.6 1019.5 0.0
08/09:30pm 15.3 11.3 6.6 56 4.3 ESE 17 30 9 16 1020.6 1019.5 0.0
08/09:00pm 16.3 12.6 6.4 52 4.9 E 15 26 8 14 1020.3 1019.2 0.0
08/08:30pm 17.5 13.4 6.4 48 5.6 ESE 17 24 9 13 1020.0 1018.9 0.0
08/08:00pm 18.5 13.4 6.0 44 6.2 ESE 22 32 12 17 1019.8 1018.7 0.0
08/07:30pm 18.9 14.3 5.7 42 6.6 SE 19 26 10 14 1019.6 1018.5 0.0
08/07:00pm 20.3 14.7 5.5 38 7.4 ESE 24 33 13 18 1019.2 1018.1 0.0
08/06:30pm 22.2 16.1 4.7 32 8.8 ESE 26 35 14 19 1018.5 1017.4 0.0
08/06:00pm 23.8 18.0 4.2 28 9.8 SE 24 35 13 19 1018.2 1017.1 0.0
08/05:30pm 26.1 21.7 -2.5 15 12.9 E 11 19 6 10 1017.9 1016.8 0.0
08/05:00pm 26.3 21.6 -1.5 16 12.7 E 13 22 7 12 1017.9 1016.8 0.0
08/04:30pm 26.5 21.7 -2.2 15 13.0 E 13 22 7 12 1018.1 1017.0 0.0
08/04:00pm 27.0 22.2 -2.7 14 13.4 E 13 22 7 12 1018.3 1017.2 0.0
08/03:30pm 26.8 20.9 -2.0 15 13.2 NE 19 26 10 14 1018.4 1017.3 0.0
08/03:00pm 26.2 22.2 -2.4 15 12.9 NNE 9 17 5 9 1018.7 1017.6 0.0
08/02:30pm 25.9 21.2 -1.8 16 12.6 E 13 26 7 14 1019.0 1017.9 0.0
08/02:00pm 25.2 21.7 -1.6 17 12.2 SE 7 19 4 10 1019.4 1018.3 0.0
08/01:30pm 24.7 20.2 -0.4 19 11.6 SE 13 24 7 13 1019.6 1018.5 0.0
08/01:00pm 24.2 19.7 -0.2 20 11.3 SE 13 28 7 15 1019.8 1018.7 0.0
08/12:30pm 23.2 19.4 1.5 24 10.3 SE 11 20 6 11 1020.2 1019.1 0.0
08/12:00pm 23.0 19.3 2.5 26 9.9 ENE 11 20 6 11 1020.8 1019.7 0.0
08/11:30am 21.5 17.8 2.2 28 9.2 ESE 11 20 6 11 1021.2 1020.1 0.0
08/11:00am 20.1 16.9 2.9 32 8.2 SE 9 17 5 9 1021.6 1020.6 0.0
08/10:30am 19.9 15.9 2.7 32 8.1 NE 13 32 7 17 1022.1 1021.1 0.0
08/10:00am 19.3 15.5 3.9 36 7.4 ENE 13 22 7 12 1022.4 1021.3 0.0
08/09:30am 17.9 12.9 3.8 39 6.7 ENE 19 28 10 15 1022.8 1021.7 0.0
08/09:00am 16.6 11.7 4.0 43 6.0 E 19 26 10 14 1022.6 1021.5 0.0
08/08:30am 16.3 11.6 5.0 47 5.5 ENE 19 30 10 16 1023.0 1021.9 0.0
08/08:00am 15.5 11.5 4.8 49 5.1 E 15 22 8 12 1023.1 1022.0 0.0
08/07:30am 13.8 8.8 4.4 53 4.4 ESE 20 28 11 15 1022.8 1021.7 0.0
08/07:00am 13.4 9.0 4.8 56 4.0 ESE 17 22 9 12 1022.5 1021.4 0.0
08/06:30am 10.9 7.6 4.4 64 3.0 SE 11 13 6 7 1022.5 1021.4 0.0
08/06:00am 9.0 6.0 4.0 71 2.2 SSE 9 11 5 6 1022.0 1021.0 0.0
08/05:30am 7.3 4.6 3.9 79 1.5 S 7 9 4 5 1021.8 1020.8 0.0
08/05:00am 6.8 5.4 3.6 80 1.4 CALM 0 0 0 0 1021.7 1020.7 0.0
08/04:30am 6.3 4.0 2.8 78 1.5 SSE 4 6 2 3 1021.4 1020.3 0.0
08/04:00am 6.3 3.4 2.6 77 1.5 SSE 7 9 4 5 1021.2 1020.1 0.0
08/03:30am 6.8 4.0 3.1 77 1.6 SSE 7 9 4 5 1021.1 1020.0 0.0
08/03:00am 6.8 4.5 2.9 76 1.7 SE 4 7 2 4 1021.2 1020.1 0.0
08/02:30am 6.9 4.0 2.6 74 1.8 ESE 7 11 4 6 1021.1 1020.0 0.0
08/02:00am 8.0 6.2 3.5 73 2.0 ESE 2 6 1 3 1021.2 1020.1 0.0
08/01:30am 8.0 5.4 3.1 71 2.1 SE 6 13 3 7 1021.3 1020.2 0.0
08/01:00am 8.4 5.7 3.5 71 2.1 SE 7 15 4 8 1021.5 1020.5 0.0
08/12:30am 8.3 5.2 3.6 72 2.1 SE 9 13 5 7 1021.6 1020.6 0.0
08/12:00am 8.7 5.6 3.5 70 2.3 SSE 9 13 5 7 1021.7 1020.7 0.0
 
Date/Time
WST
Temp
°C
App
Temp
°C
Dew
Point
°C
Rel
Hum
%
Delta-T
°C
Wind Press
QNH
hPa
Press
MSL
hPa
Rain since
9am
mm
Dir  Spd
km/h
Gust
km/h
Spd
kts
Gust
kts
07/11:30pm 9.2 6.1 3.4 67 2.6 SSE 9 13 5 7 1021.8 1020.8 0.0
07/11:00pm 10.1 5.9 4.0 66 2.7 SSE 15 17 8 9 1021.8 1020.8 0.0
07/10:30pm 10.8 6.7 4.3 64 3.0 SSE 15 20 8 11 1022.0 1021.0 0.0
07/10:00pm 11.4 7.7 4.4 62 3.2 S 13 20 7 11 1022.1 1021.1 0.0
07/09:30pm 12.0 8.0 4.7 61 3.4 S 15 24 8 13 1021.8 1020.8 0.0
07/09:00pm 12.6 8.2 4.6 58 3.7 SSE 17 26 9 14 1021.6 1020.6 0.0
07/08:30pm 13.3 8.5 4.5 55 4.1 SSE 19 28 10 15 1021.3 1020.2 0.0
07/08:00pm 13.9 9.8 4.2 52 4.5 SSE 15 24 8 13 1021.0 1019.9 0.0
07/07:30pm 15.3 10.3 4.4 48 5.2 SSE 20 32 11 17 1020.4 1019.3 0.0
07/07:00pm 16.7 11.5 3.7 42 6.1 SSE 20 30 11 16 1019.9 1018.8 0.0
07/06:30pm 18.3 12.9 2.2 34 7.5 SSE 20 35 11 19 1019.1 1018.0 0.0
07/06:00pm 19.5 14.0 0.5 28 8.6 S 19 26 10 14 1018.6 1017.5 0.0
07/05:30pm 20.2 13.7 0.6 27 8.9 SSE 24 35 13 19 1018.0 1016.9 0.0
07/05:00pm 20.7 14.7 1.1 27 9.0 S 22 33 12 18 1017.5 1016.4 0.0
07/04:30pm 21.3 15.0 -1.3 22 10.0 S 22 37 12 20 1017.3 1016.2 0.0
07/04:00pm 21.6 15.2 0.8 25 9.6 S 24 35 13 19 1016.9 1015.8 0.0
07/03:30pm 21.7 15.2 0.3 24 9.8 S 24 37 13 20 1017.0 1015.9 0.0
07/03:00pm 22.1 15.7 1.2 25 9.8 SSW 24 41 13 22 1017.0 1015.9 0.0
07/02:30pm 21.8 15.2 -0.2 23 10.0 SSW 24 35 13 19 1016.9 1015.8 0.0
07/02:00pm 22.0 15.5 0.5 24 9.9 S 24 37 13 20 1016.8 1015.7 0.0
07/01:30pm 22.2 15.8 0.7 24 10.0 SSW 24 35 13 19 1016.6 1015.5 0.0
07/01:00pm 21.3 15.7 1.0 26 9.4 SSW 20 32 11 17 1016.5 1015.4 0.0
07/12:30pm 20.6 13.7 0.4 26 9.2 S 26 44 14 24 1016.5 1015.4 0.0
07/12:00pm 20.4 13.8 -0.3 25 9.3 SSW 24 37 13 20 1016.6 1015.5 0.0
07/11:30am 20.5 13.4 -1.3 23 9.6 SSW 26 39 14 21 1016.6 1015.5 0.0
07/11:00am 20.2 12.8 1.6 29 8.6 SW 30 43 16 23 1016.4 1015.3 0.0
07/10:30am 19.1 11.6 1.1 30 8.2 SW 30 43 16 23 1016.4 1015.3 0.0
07/10:00am 18.6 12.2 3.3 36 7.3 SW 26 44 14 24 1016.1 1015.0 0.0
07/09:30am 18.3 12.1 6.2 45 6.1 SSW 28 39 15 21 1015.9 1014.7 0.0
07/09:03am 17.8 11.9 7.5 51 5.3 SSW 28 48 15 26 1015.7 1014.5 0.0
07/09:00am 16.8 10.4 6.9 52 5.0 SW 30 41 16 22 1015.7 1014.5 0.0
07/08:30am 16.9 10.5 7.0 52 5.0 SW 30 46 16 25 1015.3 1014.2 0.0
07/08:00am 16.2 10.1 8.4 60 4.0 SW 30 43 16 23 1015.3 1014.2 0.0
07/07:30am 16.0 12.1 9.4 65 3.5 WSW 20 26 11 14 1014.9 1013.8 0.0
07/07:00am 15.0 10.9 10.0 72 2.6 WSW 22 33 12 18 1014.5 1013.4 0.0
07/06:30am 15.4 11.7 10.0 70 2.9 WSW 20 30 11 16 1014.1 1013.0 0.0
07/06:00am 15.1 11.0 10.1 72 2.7 W 22 32 12 17 1013.5 1012.4 0.0
07/05:30am 14.0 11.5 9.6 75 2.3 W 13 19 7 10 1013.2 1012.0 0.0
07/05:00am 14.1 11.5 9.5 74 2.4 WNW 13 20 7 11 1013.0 1011.8 0.0
07/04:30am 14.0 12.1 9.0 72 2.6 W 9 15 5 8 1012.8 1011.6 0.0
07/04:00am 14.5 11.1 9.3 71 2.7 W 17 26 9 14 1012.7 1011.5 0.0
07/03:30am 14.4 11.0 9.0 70 2.8 W 17 24 9 13 1012.4 1011.2 0.0
07/03:00am 13.8 10.3 8.8 72 2.6 W 17 28 9 15 1012.2 1011.1 0.0
07/02:30am 12.7 10.0 8.8 77 2.0 W 13 19 7 10 1012.4 1011.2 0.0
07/02:00am 12.5 9.4 8.8 78 1.9 W 15 20 8 11 1012.2 1011.1 0.0
07/01:30am 12.6 10.2 8.7 77 2.0 W 11 17 6 9 1012.4 1011.2 0.0
07/01:00am 12.9 10.5 8.8 76 2.1 W 11 17 6 9 1012.7 1011.5 0.0
07/12:30am 12.8 11.1 8.3 74 2.3 W 7 9 4 5 1012.9 1011.7 0.0
07/12:00am 13.8 11.8 8.6 71 2.7 WSW 9 13 5 7 1013.0 1011.8 0.0
 
Date/Time
WST
Temp
°C
App
Temp
°C
Dew
Point
°C
Rel
Hum
%
Delta-T
°C
Wind Press
QNH
hPa
Press
MSL
hPa
Rain since
9am
mm
Dir  Spd
km/h
Gust
km/h
Spd
kts
Gust
kts
06/11:30pm 14.3 12.4 8.9 70 2.8 WSW 9 15 5 8 1013.1 1011.9 0.0
06/11:00pm 15.0 12.9 9.6 70 2.8 WSW 11 17 6 9 1013.4 1012.3 0.0
06/10:30pm 15.6 12.7 9.7 68 3.1 SW 15 22 8 12 1013.7 1012.6 0.0
06/10:00pm 16.3 12.7 9.9 66 3.4 SW 19 28 10 15 1013.7 1012.6 0.0
06/09:30pm 17.5 13.3 9.9 61 4.1 SW 22 32 12 17 1013.5 1012.4 0.0
06/09:00pm 18.6 15.6 6.1 44 6.3 WSW 11 19 6 10 1013.0 1011.8 0.0
06/08:30pm 19.8 15.9 5.5 39 7.1 WSW 15 19 8 10 1013.0 1011.8 0.0
06/08:00pm 20.2 16.9 4.7 36 7.7 W 11 17 6 9 1012.7 1011.5 0.0
06/07:30pm 21.2 17.4 3.9 32 8.5 W 13 19 7 10 1012.5 1011.3 0.0
06/07:00pm 22.6 18.4 3.7 29 9.3 W 15 20 8 11 1012.0 1010.9 0.0
06/06:30pm 24.1 19.4 3.4 26 10.2 WSW 17 20 9 11 1011.9 1010.8 0.0
06/06:00pm 24.9 20.2 3.0 24 10.8 W 17 24 9 13 1011.7 1010.6 0.0
06/05:30pm 25.4 21.0 2.8 23 11.2 W 15 24 8 13 1011.6 1010.5 0.0
06/05:00pm 26.1 21.6 2.1 21 11.8 WSW 15 24 8 13 1011.5 1010.4 0.0
06/04:30pm 26.3 21.1 2.3 21 11.8 WSW 19 26 10 14 1011.6 1010.5 0.0
06/04:00pm 26.3 21.4 2.3 21 11.8 W 17 28 9 15 1011.8 1010.7 0.0
06/03:30pm 26.7 22.0 3.2 22 11.8 W 17 24 9 13 1012.1 1011.0 0.0
06/03:00pm 26.6 21.8 2.5 21 11.9 WSW 17 28 9 15 1012.4 1011.2 0.0
06/02:30pm 26.5 22.2 3.1 22 11.7 W 15 30 8 16 1012.8 1011.6 0.0
06/02:00pm 26.0 21.5 2.0 21 11.7 WSW 15 44 8 24 1013.1 1011.9 0.0
06/01:30pm 25.8 20.8 3.7 24 11.1 WSW 19 26 10 14 1013.3 1012.1 0.0
06/01:00pm 24.7 20.9 3.9 26 10.4 NW 13 26 7 14 1013.6 1012.5 0.0
06/12:30pm 24.3 19.2 4.1 27 10.1 WNW 20 30 11 16 1014.3 1013.2 0.0
06/12:00pm 24.4 21.0 5.7 30 9.7 WNW 13 28 7 15 1014.7 1013.6 0.0
06/11:30am 22.7 18.5 5.6 33 8.7 W 17 26 9 14 1015.4 1014.3 0.0
06/11:00am 22.2 18.3 7.2 38 7.9 WNW 17 28 9 15 1015.9 1014.7 0.0
06/10:30am 21.1 17.5 6.6 39 7.5 WNW 15 26 8 14 1016.3 1015.2 0.0
06/10:00am 20.8 17.1 7.8 43 6.8 NW 17 33 9 18 1016.7 1015.6 0.0
06/09:30am 19.6 16.5 7.4 45 6.3 NW 13 30 7 16 1016.9 1015.8 0.0
06/09:00am 18.8 15.5 8.2 50 5.5 NW 15 22 8 12 1016.9 1015.8 0.0
06/08:30am 18.1 15.8 8.9 55 4.9 WNW 11 19 6 10 1017.4 1016.3 0.0
06/08:00am 16.6 15.6 8.8 60 4.1 NNW 4 9 2 5 1017.7 1016.6 0.0

Other Formats:

Comma delimited format used in spreadsheet applications
http://www.bom.gov.au/fwo/IDW60801/IDW60801.94641.axf

JavaScript Object Notation format (JSON) in row-major order
http://www.bom.gov.au/fwo/IDW60801/IDW60801.94641.json